createdAt,value
2018-06-09T00:02:07.105Z,9.32
2018-06-09T00:08:02.306Z,7.47
2018-06-09T00:13:57.122Z,8.66
2018-06-09T00:19:52.141Z,9.35
2018-06-09T00:25:47.168Z,9.73
2018-06-09T00:31:42.159Z,8.47
2018-06-09T00:37:37.172Z,9
2018-06-09T00:43:32.158Z,12.16
2018-06-09T00:49:27.128Z,9.13
2018-06-09T00:55:22.166Z,8.97
2018-06-09T01:01:17.182Z,8.77
2018-06-09T01:07:12.187Z,8.27
2018-06-09T01:13:07.228Z,9.3
2018-06-09T01:19:02.469Z,8.57
2018-06-09T01:24:57.194Z,8.65
2018-06-09T01:30:52.201Z,7.36
2018-06-09T01:36:47.239Z,7.47
2018-06-09T01:42:42.192Z,7.16
2018-06-09T01:48:37.174Z,6.96
2018-06-09T01:54:32.260Z,7.97
2018-06-09T02:00:27.268Z,9.24
2018-06-09T02:06:22.263Z,10.01
2018-06-09T02:12:17.206Z,10.59
2018-06-09T02:18:12.210Z,11
2018-06-09T02:24:07.431Z,11.27
2018-06-09T02:30:02.884Z,11.56
2018-06-09T02:35:57.224Z,12.58
2018-06-09T02:41:52.243Z,10.71
2018-06-09T02:47:47.281Z,10.79
2018-06-09T02:53:42.281Z,11.9
2018-06-09T02:59:37.279Z,12.85
2018-06-09T03:05:32.311Z,12.78
2018-06-09T03:11:27.327Z,11.17
2018-06-09T03:17:22.302Z,12.21
2018-06-09T03:23:17.332Z,13.31
2018-06-09T03:29:12.289Z,12.86
2018-06-09T03:35:07.264Z,13.38
2018-06-09T03:41:02.287Z,13.46
2018-06-09T03:46:57.299Z,11.4
2018-06-09T03:52:52.338Z,8.18
2018-06-09T03:58:47.341Z,8.65
2018-06-09T04:04:42.276Z,9.4
2018-06-09T04:10:37.319Z,10.47
2018-06-09T04:16:32.379Z,11.03
2018-06-09T04:22:27.345Z,9.76
2018-06-09T04:28:22.411Z,6.87
2018-06-09T04:34:17.314Z,7.3
2018-06-09T04:40:12.310Z,7.56
2018-06-09T04:46:10.363Z,7.25
2018-06-09T04:52:02.359Z,6.95
2018-06-09T04:57:57.359Z,7.25
2018-06-09T05:03:52.327Z,8.01
2018-06-09T05:09:47.314Z,6.93
2018-06-09T05:15:42.342Z,6.4
2018-06-09T05:21:37.447Z,5.97
2018-06-09T05:27:32.388Z,6.11
2018-06-09T05:33:27.339Z,6.83
2018-06-09T05:39:22.380Z,5.69
2018-06-09T05:45:17.391Z,6.03
2018-06-09T05:51:59.194Z,6.63
2018-06-09T05:57:07.407Z,5.65
2018-06-09T06:03:02.440Z,5.66
2018-06-09T06:08:57.412Z,6.01
2018-06-09T06:14:52.441Z,6.21
2018-06-09T06:20:47.388Z,5.39
2018-06-09T06:26:42.443Z,6.01
2018-06-09T06:32:37.386Z,7.02
2018-06-09T06:38:32.406Z,6.29
2018-06-09T06:44:27.442Z,6.03
2018-06-09T06:50:22.456Z,5.57
2018-06-09T06:56:17.427Z,6.2
2018-06-09T07:02:12.443Z,5.59
2018-06-09T07:08:07.444Z,5.4
2018-06-09T07:14:02.543Z,5.53
2018-06-09T07:19:57.465Z,4.82
2018-06-09T07:25:52.471Z,5.2
2018-06-09T07:31:47.419Z,5.57
2018-06-09T07:37:42.490Z,5.7
2018-06-09T07:43:37.440Z,5.57
2018-06-09T07:49:32.489Z,5.25
2018-06-09T07:55:27.473Z,4.8
2018-06-09T08:01:22.505Z,5.97
2018-06-09T08:07:17.538Z,4.87
2018-06-09T08:13:12.525Z,4.27
2018-06-09T08:19:07.503Z,4.17
2018-06-09T08:25:02.735Z,4.3
2018-06-09T08:30:57.522Z,3.71
2018-06-09T08:36:52.545Z,4.26
2018-06-09T08:42:47.521Z,3.77
2018-06-09T08:48:42.495Z,3.77
2018-06-09T08:54:37.608Z,4.2
2018-06-09T09:00:32.567Z,3.4
2018-06-09T09:06:27.511Z,3.27
2018-06-09T09:12:22.594Z,3.45
2018-06-09T09:18:17.559Z,3.02
2018-06-09T09:24:12.623Z,3.18
2018-06-09T09:30:07.569Z,4.05
2018-06-09T09:36:02.531Z,3.9
2018-06-09T09:43:30.981Z,4.06
2018-06-09T09:47:52.541Z,4.7
2018-06-09T09:53:47.608Z,4.88
2018-06-09T09:59:42.589Z,4.96
2018-06-09T10:05:37.557Z,4.28
2018-06-09T10:11:32.586Z,4.1
2018-06-09T10:17:27.672Z,4.18
2018-06-09T10:23:22.564Z,3.88
2018-06-09T10:29:17.587Z,3.56
2018-06-09T10:35:12.580Z,3.55
2018-06-09T10:41:07.575Z,3.26
2018-06-09T10:47:02.623Z,3.33
2018-06-09T10:52:57.672Z,3.13
2018-06-09T10:58:52.628Z,2.87
2018-06-09T11:04:47.619Z,3.5
2018-06-09T11:10:42.644Z,2.84
2018-06-09T11:16:37.668Z,2.37
2018-06-09T11:22:32.621Z,2.81
2018-06-09T11:28:27.654Z,2.24
2018-06-09T11:34:22.666Z,2.41
2018-06-09T11:40:17.667Z,2.56
2018-06-09T11:46:12.648Z,2.75
2018-06-09T11:52:07.766Z,2.42
2018-06-09T11:58:02.941Z,2.33
2018-06-09T12:03:57.656Z,2.32
2018-06-09T12:09:52.662Z,2.71
2018-06-09T12:15:47.735Z,2.89
2018-06-09T12:21:42.874Z,2.9
2018-06-09T12:27:37.736Z,2.95
2018-06-09T12:33:32.681Z,2.51
2018-06-09T12:39:27.753Z,2.13
2018-06-09T12:45:23.210Z,2.39
2018-06-09T12:51:17.748Z,2.49
2018-06-09T12:57:12.841Z,1.9
2018-06-09T13:03:07.881Z,2.25
2018-06-09T13:09:02.781Z,2.6
2018-06-09T13:14:57.786Z,2.14
2018-06-09T13:20:52.735Z,2.5
2018-06-09T13:26:47.872Z,2.73
2018-06-09T13:32:42.722Z,1.88
2018-06-09T13:38:37.762Z,2.07
2018-06-09T13:44:32.864Z,2.81
2018-06-09T13:50:27.730Z,2.63
2018-06-09T13:56:22.752Z,1.89
2018-06-09T14:02:17.883Z,2.73
2018-06-09T14:08:12.745Z,2.5
2018-06-09T14:14:07.776Z,2.22
2018-06-09T14:20:02.774Z,2.22
2018-06-09T14:25:57.786Z,2.23
2018-06-09T14:31:52.808Z,1.72
2018-06-09T14:37:47.829Z,2.23
2018-06-09T14:43:42.827Z,2.49
2018-06-09T14:49:37.836Z,2.27
2018-06-09T14:55:32.803Z,1.96
2018-06-09T15:01:27.820Z,1.83
2018-06-09T15:07:22.866Z,2.12
2018-06-09T15:13:17.840Z,2.1
2018-06-09T15:19:12.838Z,2.01
2018-06-09T15:25:08.266Z,2.09
2018-06-09T15:31:03.161Z,1.85
2018-06-09T15:36:57.860Z,2
2018-06-09T15:42:52.889Z,2.1
2018-06-09T15:48:47.855Z,2.09
2018-06-09T15:54:42.884Z,1.81
2018-06-09T16:00:37.888Z,2.3
2018-06-09T16:06:32.937Z,2.26
2018-06-09T16:12:27.930Z,1.85
2018-06-09T16:18:23.028Z,2.38
2018-06-09T16:24:17.882Z,2.21
2018-06-09T16:30:13.424Z,3.16
2018-06-09T16:36:07.900Z,2.3
2018-06-09T16:42:02.956Z,2.39
2018-06-09T16:47:57.907Z,2.17
2018-06-09T16:53:52.943Z,2.37
2018-06-09T16:59:47.915Z,2.26
2018-06-09T17:05:42.927Z,2.28
2018-06-09T17:11:38.022Z,2.05
2018-06-09T17:17:32.995Z,2.05
2018-06-09T17:23:27.932Z,2.3
2018-06-09T17:29:22.926Z,1.99
2018-06-09T17:35:17.956Z,2.65
2018-06-09T17:41:13.071Z,2.32
2018-06-09T17:47:07.974Z,2.83
2018-06-09T17:53:02.960Z,2.82
2018-06-09T17:58:57.961Z,3.38
2018-06-09T18:04:52.952Z,2.5
2018-06-09T18:10:48.021Z,2.96
2018-06-09T18:16:42.999Z,3.52
2018-06-09T18:22:38.029Z,2.91
2018-06-09T18:28:32.997Z,3.12
2018-06-09T18:34:28.005Z,3.01
2018-06-09T18:40:23.001Z,3.13
2018-06-09T18:46:18.046Z,3.16
2018-06-09T18:52:13.026Z,2.78
2018-06-09T18:58:08.095Z,2.94
2018-06-09T19:04:03.063Z,3.3
2018-06-09T19:09:58.732Z,4.11
2018-06-09T19:15:53.106Z,4.47
2018-06-09T19:21:48.098Z,3.56
2018-06-09T19:27:43.093Z,2.91
2018-06-09T19:34:09.603Z,3.65
2018-06-09T19:39:33.052Z,3.7
2018-06-09T19:45:28.087Z,3.16
2018-06-09T19:51:23.042Z,3.75
2018-06-09T19:57:18.056Z,3.9
2018-06-09T20:03:13.089Z,4.07
2018-06-09T20:09:08.106Z,3.62
2018-06-09T20:15:03.310Z,3.92
2018-06-09T20:20:58.053Z,3.77
2018-06-09T20:26:53.134Z,3.59
2018-06-09T20:32:48.081Z,4.23
2018-06-09T20:38:43.099Z,3.89
2018-06-09T20:44:38.102Z,4.15
2018-06-09T20:50:33.144Z,4.25
2018-06-09T20:56:28.113Z,4.44
2018-06-09T21:02:23.113Z,4.16
2018-06-09T21:08:18.113Z,4.39
2018-06-09T21:14:13.135Z,4.48
2018-06-09T21:20:08.123Z,4.96
2018-06-09T21:26:03.206Z,4.93
2018-06-09T21:31:58.109Z,5.1
2018-06-09T21:37:53.135Z,5.03
2018-06-09T21:43:48.170Z,4.63
2018-06-09T21:49:43.198Z,4.59
2018-06-09T21:55:38.148Z,4.84
2018-06-09T22:01:33.200Z,5.6
2018-06-09T22:07:28.456Z,5.32
2018-06-09T22:13:23.244Z,5.28
2018-06-09T22:19:18.182Z,5.32
2018-06-09T22:25:13.159Z,4.78
2018-06-09T22:31:08.156Z,4.86
2018-06-09T22:37:03.227Z,4.63
2018-06-09T22:42:58.184Z,4.86
2018-06-09T22:48:53.225Z,5.17
2018-06-09T22:54:48.264Z,4.87
2018-06-09T23:00:43.264Z,5.01
2018-06-09T23:06:41.719Z,5.61
2018-06-09T23:12:33.243Z,6.41
2018-06-09T23:18:28.195Z,5.23
2018-06-09T23:24:23.220Z,4.85
2018-06-09T23:30:18.298Z,5.13
2018-06-09T23:36:13.218Z,4.78
2018-06-09T23:42:08.289Z,5
2018-06-09T23:48:07.583Z,5.4
2018-06-09T23:53:58.298Z,4.91
2018-06-09T23:59:53.919Z,4.96
